Alanreed, TX

1:27 AM CDT on April 28, 2015 (GMT -0500)
WT_Meso | | Change Station
CLOSE
Current Station
Personal Weather Station
Location: Pampa, TX
Elevation: 3215 ft
Nearby Weather Stations

Elev 3215 ft 35.54 °N, 100.93 °W | Updated 22 minutes ago

Overcast
Overcast
41 °F
Feels Like 35 °F
N
9
Wind Variable Wind from NNW
Gusts 11.0 mph

Today
High -- | Low -- °F
--% Chance of Precip.
Yesterday
High -- | Low -- °F
Precip. -- in
6:54 AM 8:26 PM
Waxing Gibbous, 71% visible
Pressure 30.18 in
Visibility 7.0 miles
Clouds Scattered Clouds 700 ft
Mostly Cloudy 2800 ft
Overcast 5000 ft
Windchill 35 °F
Dew Point 40 °F
Humidity 99%
Rainfall in
Snow Depth Not available.
UV 0 out of 12
Pollen 2.10 out of 12
Air Quality Not available.
Flu Activity Local Activity
METAR KPPA 280555Z AUTO 36007KT 7SM DZ SCT007 BKN028 OVC050 05/04 A3018 RMK AO2 T00480042 10052 20040 400980040

More Conditions Fewer Conditions

Pressure 30.18 in
Visibility 7.0 miles
Clouds Scattered Clouds 700 ft
Mostly Cloudy 2800 ft
Overcast 5000 ft
Windchill 35 °F
Dew Point 40 °F
Humidity 99%
Rainfall in
Snow Depth Not available.
UV 0 out of 12
Pollen 2.10 out of 12
Air Quality Not available.
Flu Activity Local Activity
METAR KPPA 280555Z AUTO 36007KT 7SM DZ SCT007 BKN028 OVC050 05/04 A3018 RMK AO2 T00480042 10052 20040 400980040

More Conditions Fewer Conditions

10-Day Weather Forecast

Almanac

Astronomy

Apr. 28, 2015 Rise Set
Actual Time
Civil Twilight
Nautical Twilight
Astronomical Twilight
Moon
Length of Visible Light
Length of Day
Tomorrow will be .
, % of the Moon is Illuminated

Today's Extremes

State Highs State Lows

Community

WunderPhotos

Upload Photos

1,817,591 photos uploaded!

WunderBlogs® & News

Nearby

Air Quality

  Air Quality AQ Index Pollutant
Not available.

Snow Depth

Station Depth Elevation

Earthquake Activity

City Distance Mag. Time & Date
Minimum magnitude displayed is 2.5.

Coastal Water Temperatures

Place Temperature

Stations

Nearby Weather Stations

Station Location Temp. Windchill Dew Point Humidity Wind Precip. Elev Updated Type